createdAt,value
2018-12-05T00:00:19.214Z,3.60
2018-12-05T00:02:48.615Z,3.50
2018-12-05T00:05:16.040Z,3.67
2018-12-05T00:07:47.872Z,3.33
2018-12-05T00:10:18.990Z,3.40
2018-12-05T00:12:46.519Z,3.83
2018-12-05T00:15:14.061Z,4.00
2018-12-05T00:17:43.175Z,3.73
2018-12-05T00:20:10.993Z,3.37
2018-12-05T00:22:39.249Z,3.60
2018-12-05T00:25:06.803Z,3.60
2018-12-05T00:27:35.126Z,4.17
2018-12-05T00:30:02.912Z,3.97
2018-12-05T00:32:30.370Z,4.03
2018-12-05T00:34:58.605Z,4.10
2018-12-05T00:37:27.056Z,4.40
2018-12-05T00:39:56.093Z,4.40
2018-12-05T00:42:28.288Z,3.80
2018-12-05T00:45:00.451Z,4.60
2018-12-05T00:47:58.428Z,4.80
2018-12-05T00:50:32.689Z,4.00
2018-12-05T00:53:00.557Z,4.03
2018-12-05T00:55:29.350Z,4.43
2018-12-05T00:57:57.814Z,4.87
2018-12-05T01:00:25.341Z,5.80
2018-12-05T01:02:53.444Z,4.70
2018-12-05T01:05:21.764Z,5.20
2018-12-05T01:07:49.757Z,4.60
2018-12-05T01:10:17.411Z,4.97
2018-12-05T01:12:45.161Z,4.80
2018-12-05T01:15:13.585Z,5.33
2018-12-05T01:17:41.197Z,5.70
2018-12-05T01:20:09.026Z,5.37
2018-12-05T01:22:36.664Z,5.33
2018-12-05T01:25:04.287Z,5.50
2018-12-05T01:27:32.172Z,5.60
2018-12-05T01:29:59.643Z,6.37
2018-12-05T01:32:27.236Z,6.53
2018-12-05T01:34:55.093Z,5.43
2018-12-05T01:37:22.673Z,6.93
2018-12-05T01:39:50.380Z,6.70
2018-12-05T01:42:18.353Z,7.00
2018-12-05T01:44:46.521Z,6.43
2018-12-05T01:47:14.223Z,5.77
2018-12-05T01:49:41.897Z,8.53
2018-12-05T01:52:09.541Z,8.93
2018-12-05T01:54:38.159Z,7.93
2018-12-05T01:57:06.028Z,9.40
2018-12-05T01:59:33.790Z,9.00
2018-12-05T02:02:01.979Z,8.83
2018-12-05T02:04:32.927Z,8.00
2018-12-05T02:07:00.699Z,7.73
2018-12-05T02:09:28.303Z,7.00
2018-12-05T02:11:55.808Z,6.57
2018-12-05T02:14:25.504Z,6.47
2018-12-05T02:16:57.278Z,5.97
2018-12-05T02:19:25.081Z,6.80
2018-12-05T02:21:52.640Z,5.53
2018-12-05T02:24:21.458Z,6.33
2018-12-05T02:26:49.975Z,6.47
2018-12-05T02:29:17.689Z,6.80
2018-12-05T02:31:45.731Z,6.43
2018-12-05T02:34:13.286Z,6.40
2018-12-05T02:36:40.714Z,6.00
2018-12-05T02:39:22.234Z,6.20
2018-12-05T02:41:49.839Z,7.27
2018-12-05T02:44:17.415Z,7.00
2018-12-05T02:46:45.008Z,7.30
2018-12-05T02:49:13.678Z,8.30
2018-12-05T02:51:41.235Z,7.83
2018-12-05T02:54:08.766Z,7.30
2018-12-05T02:56:38.363Z,7.80
2018-12-05T02:59:05.887Z,8.57
2018-12-05T03:01:33.474Z,8.23
2018-12-05T03:04:01.110Z,8.77
2018-12-05T03:06:29.193Z,7.83
2018-12-05T03:09:01.755Z,8.17
2018-12-05T03:13:54.672Z,8.50
2018-12-05T03:16:22.301Z,7.97
2018-12-05T03:18:51.675Z,8.20
2018-12-05T03:21:21.268Z,7.80
2018-12-05T03:23:52.947Z,8.80
2018-12-05T03:26:21.577Z,8.23
2018-12-05T03:28:53.854Z,8.57
2018-12-05T03:31:21.526Z,8.37
2018-12-05T03:33:49.244Z,9.53
2018-12-05T03:36:16.840Z,9.47
2018-12-05T03:38:45.491Z,9.90
2018-12-05T03:41:13.119Z,9.03
2018-12-05T03:43:49.083Z,8.90
2018-12-05T03:46:16.868Z,9.30
2018-12-05T03:48:45.432Z,10.17
2018-12-05T03:51:13.206Z,9.67
2018-12-05T03:53:45.466Z,9.13
2018-12-05T03:56:13.152Z,10.47
2018-12-05T03:58:40.667Z,10.00
2018-12-05T04:01:08.218Z,9.10
2018-12-05T04:03:35.683Z,8.90
2018-12-05T04:06:03.228Z,9.00
2018-12-05T04:08:30.931Z,7.90
2018-12-05T04:10:58.559Z,10.07
2018-12-05T04:13:26.049Z,8.83
2018-12-05T04:18:20.102Z,8.63
2018-12-05T04:20:47.768Z,8.27
2018-12-05T04:23:15.300Z,8.13
2018-12-05T04:25:43.230Z,8.43
2018-12-05T04:28:10.892Z,8.60
2018-12-05T04:30:39.404Z,8.57
2018-12-05T04:33:07.026Z,8.10
2018-12-05T04:35:34.632Z,7.63
2018-12-05T04:38:02.145Z,8.67
2018-12-05T04:40:29.639Z,8.53
2018-12-05T04:42:58.021Z,8.27
2018-12-05T04:45:25.552Z,8.60
2018-12-05T04:47:53.448Z,8.10
2018-12-05T04:50:21.002Z,8.90
2018-12-05T04:52:48.583Z,8.63
2018-12-05T04:55:16.044Z,8.77
2018-12-05T04:57:43.611Z,9.00
2018-12-05T05:00:11.150Z,9.73
2018-12-05T05:02:39.791Z,9.33
2018-12-05T05:05:07.295Z,9.93
2018-12-05T05:07:42.698Z,9.27
2018-12-05T05:10:12.416Z,10.23
2018-12-05T05:12:40.045Z,9.73
2018-12-05T05:15:07.674Z,9.57
2018-12-05T05:17:35.748Z,10.00
2018-12-05T05:20:08.181Z,9.23
2018-12-05T05:22:35.817Z,10.17
2018-12-05T05:25:04.287Z,9.63
2018-12-05T05:27:32.571Z,9.87
2018-12-05T05:30:00.179Z,10.00
2018-12-05T05:32:29.999Z,9.03
2018-12-05T05:34:59.491Z,8.47
2018-12-05T05:37:28.872Z,8.00
2018-12-05T05:39:56.462Z,8.80
2018-12-05T05:42:24.017Z,7.60
2018-12-05T05:44:51.582Z,7.53
2018-12-05T05:47:19.173Z,7.90
2018-12-05T05:49:46.760Z,7.73
2018-12-05T05:52:14.359Z,7.90
2018-12-05T05:54:41.885Z,8.07
2018-12-05T05:57:09.416Z,7.23
2018-12-05T05:59:49.755Z,7.90
2018-12-05T06:02:17.342Z,8.77
2018-12-05T06:04:44.912Z,7.70
2018-12-05T06:07:22.840Z,8.47
2018-12-05T06:09:59.236Z,8.20
2018-12-05T06:12:26.765Z,7.83
2018-12-05T06:14:57.784Z,8.27
2018-12-05T06:19:50.900Z,8.17
2018-12-05T06:22:23.012Z,8.10
2018-12-05T06:24:50.649Z,7.17
2018-12-05T06:27:18.427Z,7.97
2018-12-05T06:29:46.665Z,7.90
2018-12-05T06:32:20.522Z,8.33
2018-12-05T06:34:49.795Z,8.00
2018-12-05T06:37:18.428Z,8.03
2018-12-05T06:39:46.319Z,8.67
2018-12-05T06:42:16.042Z,9.00
2018-12-05T06:44:43.607Z,7.90
2018-12-05T06:47:14.649Z,7.93
2018-12-05T06:49:45.161Z,8.80
2018-12-05T06:52:12.785Z,9.00
2018-12-05T06:54:41.215Z,8.90
2018-12-05T06:57:08.820Z,8.70
2018-12-05T06:59:38.979Z,9.23
2018-12-05T07:02:07.313Z,8.47
2018-12-05T07:04:38.761Z,8.87
2018-12-05T07:07:07.161Z,9.13
2018-12-05T07:09:34.694Z,8.80
2018-12-05T07:21:22.038Z,9.37
2018-12-05T07:23:51.747Z,8.57
2018-12-05T07:26:19.753Z,9.03
2018-12-05T07:28:58.159Z,9.63
2018-12-05T07:31:25.823Z,9.00
2018-12-05T07:33:54.962Z,9.60
2018-12-05T07:36:22.588Z,8.80
2018-12-05T07:38:50.132Z,9.33
2018-12-05T07:41:18.257Z,9.07
2018-12-05T07:43:45.940Z,9.20
2018-12-05T07:46:15.300Z,9.83
2018-12-05T07:48:47.753Z,10.00
2018-12-05T07:51:15.294Z,9.47
2018-12-05T07:53:43.068Z,10.60
2018-12-05T07:56:15.329Z,10.03
2018-12-05T07:58:44.659Z,10.27
2018-12-05T08:01:22.284Z,9.83
2018-12-05T08:03:54.235Z,9.67
2018-12-05T08:06:26.674Z,9.77
2018-12-05T08:08:54.196Z,9.67
2018-12-05T08:11:22.182Z,10.03
2018-12-05T08:13:50.679Z,10.00
2018-12-05T08:16:22.119Z,10.17
2018-12-05T08:18:55.610Z,9.80
2018-12-05T08:21:24.094Z,9.17
2018-12-05T08:23:51.735Z,10.07
2018-12-05T08:26:19.574Z,9.67
2018-12-05T08:28:50.838Z,10.43
2018-12-05T08:31:18.398Z,10.03
2018-12-05T08:33:46.085Z,8.03
2018-12-05T08:36:14.608Z,9.50
2018-12-05T08:38:46.949Z,9.83
2018-12-05T08:41:15.432Z,9.57
2018-12-05T08:43:44.567Z,8.63
2018-12-05T08:46:12.573Z,8.73
2018-12-05T08:48:40.792Z,9.13
2018-12-05T08:51:10.504Z,9.50
2018-12-05T08:53:38.092Z,8.83
2018-12-05T08:56:06.924Z,8.83
2018-12-05T08:58:35.577Z,9.37
2018-12-05T09:01:03.736Z,8.67
2018-12-05T09:03:31.308Z,9.47
2018-12-05T09:06:06.567Z,8.93
2018-12-05T09:08:34.777Z,10.23
2018-12-05T09:11:06.821Z,10.30
2018-12-05T09:13:35.904Z,9.50
2018-12-05T09:16:07.883Z,10.13
2018-12-05T09:18:35.841Z,9.80
2018-12-05T09:21:03.485Z,10.03
2018-12-05T09:23:32.712Z,10.50
2018-12-05T09:26:00.364Z,11.67
2018-12-05T09:28:28.397Z,10.60
2018-12-05T09:30:57.048Z,10.30
2018-12-05T09:33:28.961Z,10.70
2018-12-05T09:35:57.133Z,10.70
2018-12-05T09:38:30.659Z,12.03
2018-12-05T09:40:58.303Z,10.87
2018-12-05T09:43:25.898Z,10.43
2018-12-05T09:45:53.457Z,10.20
2018-12-05T09:48:22.492Z,9.40
2018-12-05T09:50:50.991Z,10.50
2018-12-05T09:53:21.986Z,9.57
2018-12-05T09:55:52.329Z,9.33
2018-12-05T09:58:19.926Z,9.57
2018-12-05T10:00:47.585Z,8.50
2018-12-05T10:03:15.192Z,9.67
2018-12-05T10:05:43.772Z,8.97
2018-12-05T10:08:12.881Z,8.13
2018-12-05T10:10:42.091Z,8.03
2018-12-05T10:13:20.006Z,8.23
2018-12-05T10:15:47.633Z,7.80
2018-12-05T10:18:16.202Z,8.70
2018-12-05T10:20:43.923Z,8.77
2018-12-05T10:23:12.339Z,8.37
2018-12-05T10:25:40.030Z,8.20
2018-12-05T10:28:07.635Z,8.83
2018-12-05T10:30:35.421Z,8.53
2018-12-05T10:33:03.310Z,7.83
2018-12-05T10:35:35.281Z,8.77
2018-12-05T10:38:02.871Z,8.20
2018-12-05T10:40:30.366Z,8.30
2018-12-05T10:42:58.245Z,8.17
2018-12-05T10:45:26.144Z,7.90
2018-12-05T10:47:53.682Z,7.57
2018-12-05T10:50:22.089Z,7.43
2018-12-05T10:52:49.624Z,7.43
2018-12-05T10:55:17.254Z,7.53
2018-12-05T10:57:46.154Z,7.63
2018-12-05T11:00:19.699Z,6.93
2018-12-05T11:02:52.579Z,6.23
2018-12-05T11:05:31.345Z,6.33
2018-12-05T11:08:05.077Z,6.63
2018-12-05T11:10:38.293Z,6.80
2018-12-05T11:13:11.349Z,7.00
2018-12-05T11:15:48.570Z,7.17
2018-12-05T11:18:21.709Z,6.93
2018-12-05T11:20:55.661Z,6.47
2018-12-05T11:26:33.451Z,6.97
2018-12-05T11:29:01.092Z,7.30
2018-12-05T11:31:28.925Z,7.00
2018-12-05T11:34:00.698Z,8.00
2018-12-05T11:36:28.323Z,8.50
2018-12-05T11:38:58.144Z,8.70
2018-12-05T11:41:27.612Z,9.57
2018-12-05T11:43:55.461Z,9.80
2018-12-05T11:46:23.831Z,10.10
2018-12-05T11:48:53.191Z,10.10
2018-12-05T11:51:20.856Z,9.57
2018-12-05T11:53:49.008Z,11.20
2018-12-05T11:56:16.582Z,11.43
2018-12-05T11:58:44.025Z,11.00
2018-12-05T12:01:11.653Z,11.33
2018-12-05T12:03:39.200Z,11.33
2018-12-05T12:06:06.702Z,11.33
2018-12-05T12:08:34.484Z,12.33
2018-12-05T12:11:05.338Z,11.73
2018-12-05T12:13:32.906Z,12.60
2018-12-05T12:16:00.443Z,11.03
2018-12-05T12:18:28.101Z,11.70
2018-12-05T12:20:55.761Z,12.20
2018-12-05T12:23:25.883Z,11.63
2018-12-05T12:25:53.362Z,12.60
2018-12-05T12:28:20.905Z,12.63
2018-12-05T12:30:48.885Z,13.13
2018-12-05T12:33:16.470Z,12.40
2018-12-05T12:35:43.895Z,12.97
2018-12-05T12:38:11.516Z,12.90
2018-12-05T12:40:39.232Z,13.03
2018-12-05T12:43:06.675Z,14.23
2018-12-05T12:45:34.166Z,13.27
2018-12-05T12:48:01.702Z,13.83
2018-12-05T12:50:29.126Z,13.93
2018-12-05T12:52:57.066Z,14.13
2018-12-05T12:55:24.689Z,13.40
2018-12-05T12:57:52.217Z,14.03
2018-12-05T13:00:19.765Z,14.70
2018-12-05T13:02:47.394Z,14.60
2018-12-05T13:05:14.987Z,15.27
2018-12-05T13:07:42.467Z,14.27
2018-12-05T13:10:09.911Z,14.70
2018-12-05T13:12:37.389Z,15.17
2018-12-05T13:15:04.799Z,13.83
2018-12-05T13:17:32.887Z,15.40
2018-12-05T13:20:01.887Z,14.90
2018-12-05T13:22:30.856Z,16.17
2018-12-05T13:24:58.356Z,15.30
2018-12-05T13:27:25.904Z,16.60
2018-12-05T13:29:53.424Z,16.23
2018-12-05T13:32:20.895Z,16.60
2018-12-05T13:34:48.357Z,16.40
2018-12-05T13:37:15.819Z,15.93
2018-12-05T13:39:43.228Z,17.27
2018-12-05T13:42:10.711Z,18.67
2018-12-05T13:44:38.199Z,18.40
2018-12-05T13:47:06.538Z,18.97
2018-12-05T13:49:34.821Z,19.40
2018-12-05T13:52:02.294Z,18.70
2018-12-05T13:54:29.826Z,20.07
2018-12-05T13:56:57.459Z,20.70
2018-12-05T13:59:29.319Z,20.17
2018-12-05T14:01:56.877Z,22.10
2018-12-05T14:04:25.459Z,21.50
2018-12-05T14:06:54.258Z,22.60
2018-12-05T14:09:23.116Z,21.63
2018-12-05T14:11:50.616Z,22.30
2018-12-05T14:14:20.313Z,21.87
2018-12-05T14:16:47.793Z,21.43
2018-12-05T14:19:15.357Z,20.80
2018-12-05T14:21:42.907Z,19.67
2018-12-05T14:24:10.372Z,19.60
2018-12-05T14:26:38.028Z,19.53
2018-12-05T14:29:05.636Z,18.87
2018-12-05T14:31:33.161Z,18.33
2018-12-05T14:34:00.606Z,17.97
2018-12-05T14:36:28.192Z,17.43
2018-12-05T14:38:55.750Z,16.80
2018-12-05T14:41:31.320Z,17.37
2018-12-05T14:43:58.998Z,17.00
2018-12-05T14:46:26.824Z,15.57
2018-12-05T14:48:55.003Z,15.67
2018-12-05T14:51:36.125Z,15.40
2018-12-05T14:54:03.559Z,15.60
2018-12-05T14:56:31.933Z,13.03
2018-12-05T14:58:59.400Z,14.00
2018-12-05T15:01:26.871Z,15.00
2018-12-05T15:03:54.512Z,14.10
2018-12-05T15:06:22.062Z,14.23
2018-12-05T15:08:49.521Z,14.00
2018-12-05T15:11:16.955Z,13.53
2018-12-05T15:13:44.442Z,13.50
2018-12-05T15:16:12.080Z,12.73
2018-12-05T15:18:39.813Z,14.27
2018-12-05T15:21:07.306Z,12.73
2018-12-05T15:23:47.894Z,13.67
2018-12-05T15:26:19.317Z,14.13
2018-12-05T15:28:46.876Z,13.80
2018-12-05T15:31:22.238Z,13.17
2018-12-05T15:33:49.666Z,14.20
2018-12-05T15:36:17.187Z,14.03
2018-12-05T15:38:44.831Z,14.57
2018-12-05T15:41:12.361Z,14.07
2018-12-05T15:43:39.802Z,14.07
2018-12-05T15:46:07.223Z,13.80
2018-12-05T15:48:34.813Z,13.13
2018-12-05T15:51:09.414Z,11.87
2018-12-05T15:53:45.461Z,12.33
2018-12-05T15:56:20.658Z,12.57
2018-12-05T15:58:48.132Z,11.93
2018-12-05T16:01:23.936Z,11.57
2018-12-05T16:03:51.682Z,11.03
2018-12-05T16:06:26.612Z,11.63
2018-12-05T16:09:01.322Z,12.00
2018-12-05T16:11:29.244Z,11.27
2018-12-05T16:14:04.728Z,11.17
2018-12-05T16:16:32.331Z,10.73
2018-12-05T16:19:04.111Z,10.50
2018-12-05T16:21:31.866Z,10.70
2018-12-05T16:24:07.441Z,10.87
2018-12-05T16:29:14.474Z,10.47
2018-12-05T16:31:55.498Z,10.40
2018-12-05T16:34:34.187Z,11.03
2018-12-05T16:37:04.983Z,10.50
2018-12-05T16:39:39.328Z,9.30
2018-12-05T16:42:07.499Z,9.10
2018-12-05T16:45:00.492Z,10.00
2018-12-05T16:47:36.014Z,9.20
2018-12-05T16:50:12.193Z,8.67
2018-12-05T16:52:55.084Z,8.57
2018-12-05T16:55:37.893Z,8.47
2018-12-05T16:58:18.542Z,8.60
2018-12-05T17:00:57.570Z,8.00
2018-12-05T17:03:37.704Z,9.03
2018-12-05T17:06:19.909Z,8.37
2018-12-05T17:08:52.408Z,9.53
2018-12-05T17:11:32.674Z,10.53
2018-12-05T17:14:16.034Z,10.33
2018-12-05T17:16:52.373Z,11.63
2018-12-05T17:19:46.384Z,12.07
2018-12-05T17:22:28.726Z,10.87
2018-12-05T17:25:09.463Z,11.30
2018-12-05T17:27:48.415Z,12.20
2018-12-05T17:30:23.565Z,10.53
2018-12-05T17:32:54.587Z,11.50
2018-12-05T17:35:29.677Z,12.07
2018-12-05T17:38:21.874Z,12.40
2018-12-05T17:40:58.098Z,12.07
2018-12-05T17:43:33.925Z,11.93
2018-12-05T17:46:15.805Z,12.07
2018-12-05T17:48:51.948Z,10.77
2018-12-05T17:51:26.856Z,11.17
2018-12-05T17:54:06.161Z,11.27
2018-12-05T17:56:38.642Z,12.00
2018-12-05T17:59:16.099Z,12.10
2018-12-05T18:01:53.136Z,10.40
2018-12-05T18:04:24.574Z,11.80
2018-12-05T18:07:19.080Z,11.73
2018-12-05T18:09:50.544Z,11.80
2018-12-05T18:12:21.748Z,12.17
2018-12-05T18:15:06.469Z,13.53
2018-12-05T18:17:43.039Z,11.47
2018-12-05T18:20:19.330Z,11.03
2018-12-05T18:23:02.370Z,11.20
2018-12-05T18:25:37.391Z,11.27
2018-12-05T18:28:15.977Z,11.37
2018-12-05T18:31:17.743Z,11.30
2018-12-05T18:33:53.836Z,9.93
2018-12-05T18:36:28.883Z,10.00
2018-12-05T18:39:04.655Z,10.53
2018-12-05T18:41:39.697Z,9.67
2018-12-05T18:44:10.438Z,9.77
2018-12-05T18:46:46.522Z,8.87
2018-12-05T18:49:22.544Z,9.17
2018-12-05T18:51:50.170Z,10.23
2018-12-05T18:54:25.685Z,8.87
2018-12-05T18:56:56.324Z,8.70
2018-12-05T18:59:23.933Z,9.40
2018-12-05T19:01:52.770Z,9.33
2018-12-05T19:04:27.903Z,8.73
2018-12-05T19:07:02.949Z,8.80
2018-12-05T19:09:51.414Z,8.53
2018-12-05T19:12:29.876Z,8.43
2018-12-05T19:15:07.709Z,8.67
2018-12-05T19:17:38.654Z,8.60
2018-12-05T19:20:14.011Z,9.00
2018-12-05T19:22:53.127Z,8.60
2018-12-05T19:25:36.576Z,8.17
2018-12-05T19:28:30.400Z,8.60
2018-12-05T19:30:59.037Z,8.50
2018-12-05T19:33:30.576Z,8.03
2018-12-05T19:36:06.575Z,8.50
2018-12-05T19:38:34.377Z,8.30
2018-12-05T19:41:02.431Z,8.47
2018-12-05T19:43:30.260Z,8.33
2018-12-05T19:45:58.548Z,7.97
2018-12-05T19:48:26.190Z,7.93
2018-12-05T19:50:55.684Z,8.17
2018-12-05T19:53:24.355Z,7.93
2018-12-05T19:55:52.524Z,7.27
2018-12-05T19:58:20.416Z,7.10
2018-12-05T20:00:48.902Z,7.67
2018-12-05T20:03:17.298Z,7.80
2018-12-05T20:05:45.467Z,6.83
2018-12-05T20:08:13.826Z,6.93
2018-12-05T20:10:43.248Z,6.73
2018-12-05T20:13:39.558Z,6.77
2018-12-05T20:16:08.715Z,6.37
2018-12-05T20:18:37.867Z,6.23
2018-12-05T20:24:16.194Z,6.07
2018-12-05T20:26:45.921Z,5.20
2018-12-05T20:29:22.223Z,5.70
2018-12-05T20:31:51.744Z,5.60
2018-12-05T20:34:20.050Z,5.73
2018-12-05T20:36:48.551Z,5.43
2018-12-05T20:39:17.768Z,5.80
2018-12-05T20:41:45.964Z,5.63
2018-12-05T20:44:14.046Z,5.23
2018-12-05T20:46:42.107Z,5.63
2018-12-05T20:49:10.184Z,5.83
2018-12-05T20:51:53.101Z,5.10
2018-12-05T20:54:24.788Z,6.47
2018-12-05T20:57:01.691Z,5.43
2018-12-05T20:59:43.075Z,5.93
2018-12-05T21:02:18.751Z,5.93
2018-12-05T21:04:49.677Z,5.90
2018-12-05T21:07:21.101Z,5.70
2018-12-05T21:09:48.563Z,5.03
2018-12-05T21:12:16.162Z,6.40
2018-12-05T21:14:43.750Z,6.10
2018-12-05T21:17:12.896Z,5.53
2018-12-05T21:19:40.455Z,5.17
2018-12-05T21:22:08.083Z,5.80
2018-12-05T21:24:35.638Z,5.20
2018-12-05T21:27:03.091Z,5.40
2018-12-05T21:29:30.539Z,4.97
2018-12-05T21:31:58.716Z,5.23
2018-12-05T21:34:33.388Z,5.00
2018-12-05T21:37:00.829Z,5.43
2018-12-05T21:39:28.272Z,5.17
2018-12-05T21:41:55.994Z,5.07
2018-12-05T21:44:23.474Z,5.07
2018-12-05T21:46:50.909Z,5.47
2018-12-05T21:49:18.445Z,5.23
2018-12-05T21:51:46.111Z,5.17
2018-12-05T21:54:13.590Z,5.97
2018-12-05T21:56:41.018Z,5.00
2018-12-05T21:59:08.479Z,5.57
2018-12-05T22:01:35.879Z,5.50
2018-12-05T22:04:03.377Z,6.07
2018-12-05T22:06:30.930Z,5.17
2018-12-05T22:08:58.339Z,5.00
2018-12-05T22:11:25.744Z,5.97
2018-12-05T22:13:53.204Z,5.60
2018-12-05T22:16:20.752Z,6.23
2018-12-05T22:18:48.207Z,5.53
2018-12-05T22:21:15.682Z,5.90
2018-12-05T22:23:43.398Z,5.63
2018-12-05T22:26:10.974Z,6.53
2018-12-05T22:28:38.502Z,6.23
2018-12-05T22:31:05.973Z,6.50
2018-12-05T22:33:33.789Z,6.50
2018-12-05T22:36:02.003Z,6.53
2018-12-05T22:38:34.283Z,6.43
2018-12-05T22:41:02.316Z,5.80
2018-12-05T22:46:39.821Z,6.43
2018-12-05T22:49:35.540Z,6.27
2018-12-05T22:52:03.244Z,6.73
2018-12-05T22:54:31.025Z,7.10
2018-12-05T22:57:09.212Z,7.17
2018-12-05T22:59:36.881Z,7.97
2018-12-05T23:02:04.821Z,8.47
2018-12-05T23:04:32.532Z,7.93
2018-12-05T23:06:59.973Z,8.33
2018-12-05T23:09:27.655Z,8.30
2018-12-05T23:11:55.422Z,8.97
2018-12-05T23:14:22.943Z,9.40
2018-12-05T23:16:50.528Z,9.57
2018-12-05T23:19:17.955Z,10.20
2018-12-05T23:21:45.547Z,10.10
2018-12-05T23:24:13.102Z,9.70
2018-12-05T23:26:40.680Z,10.70
2018-12-05T23:29:08.807Z,10.67
2018-12-05T23:31:42.836Z,11.23
2018-12-05T23:34:10.276Z,11.07
2018-12-05T23:36:37.799Z,11.53
2018-12-05T23:39:06.448Z,11.47
2018-12-05T23:41:35.679Z,11.90
2018-12-05T23:44:03.181Z,11.40
2018-12-05T23:46:30.627Z,11.80
2018-12-05T23:48:58.116Z,11.20
2018-12-05T23:51:25.632Z,11.20
2018-12-05T23:53:53.103Z,12.17
2018-12-05T23:56:20.799Z,12.07
2018-12-05T23:58:48.207Z,13.17
